VTUU/UBP METAR and TAF weather

Enter ICAO airport designator
Station Type Date Time Source
VTUU METAR 2019/04/24 16:00 UTC NOAA

VTUU 241600Z 22004KT 7000 NSC 32/23 Q1007 NOSIG


Station Type Date Time Source
VTUU Decoded METAR 2019/04/24 16:00 UTC NOAA

Ubon Ratchathani, Thailand (VTUU) 15-15N 104-52E 127M
Apr 24, 2019 - 12:00 PM EDT / 2019.04.24 1600 UTC
Wind: from the SW (220 degrees) at 5 MPH (4 KT):0
Visibility: 4 mile(s):0
Temperature: 89 F (32 C)
Heat index: 96.8 F (36.0 C):1
Dew Point: 73 F (23 C)
Relative Humidity: 59%
Pressure (altimeter): 29.74 in. Hg (1007 hPa)
ob: VTUU 241600Z 22004KT 7000 NSC 32/23 Q1007 NOSIG
cycle: 16

Station Type Date Time Source
VTUU TAF 2019/04/24 12:37 UTC NOAA

TAF VTUU 241100Z 2412/2512 21006KT 7000 NSC
BECMG 2420/2422 5000 BR
BECMG 2502/2504 8000 NSW FEW035

Example: see airport list